sensor_id;sensor_type;location;lat;lon;timestamp;P1;durP1;ratioP1;P2;durP2;ratioP2
944;SDS011;459;48.676;9.034;2022-07-29T00:02:04;8.97;;;8.27;;
944;SDS011;459;48.676;9.034;2022-07-29T00:04:29;8.53;;;7.87;;
944;SDS011;459;48.676;9.034;2022-07-29T00:06:54;8.90;;;8.20;;
944;SDS011;459;48.676;9.034;2022-07-29T00:09:19;8.10;;;7.30;;
944;SDS011;459;48.676;9.034;2022-07-29T00:11:44;8.67;;;7.97;;
944;SDS011;459;48.676;9.034;2022-07-29T00:14:10;9.13;;;8.50;;
944;SDS011;459;48.676;9.034;2022-07-29T00:16:35;9.23;;;8.40;;
944;SDS011;459;48.676;9.034;2022-07-29T00:19:00;8.90;;;8.20;;
944;SDS011;459;48.676;9.034;2022-07-29T00:21:25;9.50;;;8.60;;
944;SDS011;459;48.676;9.034;2022-07-29T00:23:50;8.20;;;7.60;;
944;SDS011;459;48.676;9.034;2022-07-29T00:26:16;9.30;;;8.60;;
944;SDS011;459;48.676;9.034;2022-07-29T00:28:41;9.53;;;8.83;;
944;SDS011;459;48.676;9.034;2022-07-29T00:31:06;8.43;;;7.83;;
944;SDS011;459;48.676;9.034;2022-07-29T00:33:32;9.00;;;8.30;;
944;SDS011;459;48.676;9.034;2022-07-29T00:36:16;8.43;;;7.73;;
944;SDS011;459;48.676;9.034;2022-07-29T00:38:41;8.20;;;7.60;;
944;SDS011;459;48.676;9.034;2022-07-29T00:41:11;8.77;;;8.07;;
944;SDS011;459;48.676;9.034;2022-07-29T00:43:36;8.37;;;7.67;;
944;SDS011;459;48.676;9.034;2022-07-29T00:46:01;8.60;;;7.90;;
944;SDS011;459;48.676;9.034;2022-07-29T00:48:26;7.43;;;6.93;;
944;SDS011;459;48.676;9.034;2022-07-29T00:50:51;8.13;;;7.43;;
944;SDS011;459;48.676;9.034;2022-07-29T00:53:17;8.10;;;7.50;;
944;SDS011;459;48.676;9.034;2022-07-29T00:55:44;7.10;;;6.60;;
944;SDS011;459;48.676;9.034;2022-07-29T00:58:09;7.67;;;7.10;;
944;SDS011;459;48.676;9.034;2022-07-29T01:00:36;7.90;;;7.27;;
944;SDS011;459;48.676;9.034;2022-07-29T01:03:01;8.30;;;7.70;;
944;SDS011;459;48.676;9.034;2022-07-29T01:05:27;7.80;;;7.07;;
944;SDS011;459;48.676;9.034;2022-07-29T01:07:53;6.70;;;6.20;;
944;SDS011;459;48.676;9.034;2022-07-29T01:10:18;6.40;;;5.97;;
944;SDS011;459;48.676;9.034;2022-07-29T01:12:44;7.73;;;7.03;;
944;SDS011;459;48.676;9.034;2022-07-29T01:15:11;6.90;;;6.40;;
944;SDS011;459;48.676;9.034;2022-07-29T01:22:47;7.37;;;6.77;;
944;SDS011;459;48.676;9.034;2022-07-29T01:30:27;6.47;;;5.97;;
944;SDS011;459;48.676;9.034;2022-07-29T01:32:54;7.60;;;6.80;;
944;SDS011;459;48.676;9.034;2022-07-29T01:35:23;6.53;;;6.10;;
944;SDS011;459;48.676;9.034;2022-07-29T01:37:50;6.17;;;5.70;;
944;SDS011;459;48.676;9.034;2022-07-29T01:40:20;6.07;;;5.67;;
944;SDS011;459;48.676;9.034;2022-07-29T01:42:54;6.77;;;6.27;;
944;SDS011;459;48.676;9.034;2022-07-29T01:45:26;6.50;;;6.03;;
944;SDS011;459;48.676;9.034;2022-07-29T01:50:19;7.30;;;6.70;;
944;SDS011;459;48.676;9.034;2022-07-29T01:52:52;7.40;;;6.80;;
944;SDS011;459;48.676;9.034;2022-07-29T01:55:18;6.50;;;6.00;;
944;SDS011;459;48.676;9.034;2022-07-29T01:57:46;7.00;;;6.47;;
944;SDS011;459;48.676;9.034;2022-07-29T02:00:12;8.00;;;6.80;;
944;SDS011;459;48.676;9.034;2022-07-29T02:02:39;6.50;;;5.90;;
944;SDS011;459;48.676;9.034;2022-07-29T02:05:05;5.60;;;5.10;;
944;SDS011;459;48.676;9.034;2022-07-29T02:07:32;7.00;;;6.40;;
944;SDS011;459;48.676;9.034;2022-07-29T02:09:58;6.00;;;5.60;;
944;SDS011;459;48.676;9.034;2022-07-29T02:12:25;6.50;;;6.10;;
944;SDS011;459;48.676;9.034;2022-07-29T02:14:51;6.80;;;6.13;;
944;SDS011;459;48.676;9.034;2022-07-29T02:17:21;6.43;;;6.03;;
944;SDS011;459;48.676;9.034;2022-07-29T02:19:48;6.50;;;6.00;;
944;SDS011;459;48.676;9.034;2022-07-29T02:22:14;6.40;;;5.97;;
944;SDS011;459;48.676;9.034;2022-07-29T02:24:39;5.97;;;5.57;;
944;SDS011;459;48.676;9.034;2022-07-29T02:27:06;6.90;;;6.40;;
944;SDS011;459;48.676;9.034;2022-07-29T02:29:32;6.03;;;5.63;;
944;SDS011;459;48.676;9.034;2022-07-29T02:31:57;6.03;;;5.60;;
944;SDS011;459;48.676;9.034;2022-07-29T02:34:23;7.23;;;6.50;;
944;SDS011;459;48.676;9.034;2022-07-29T02:36:48;6.70;;;6.17;;
944;SDS011;459;48.676;9.034;2022-07-29T02:39:14;5.80;;;5.40;;
944;SDS011;459;48.676;9.034;2022-07-29T02:41:44;6.00;;;5.60;;
944;SDS011;459;48.676;9.034;2022-07-29T02:44:14;5.70;;;5.20;;
944;SDS011;459;48.676;9.034;2022-07-29T02:46:43;6.53;;;5.80;;
944;SDS011;459;48.676;9.034;2022-07-29T02:49:18;7.73;;;5.23;;
944;SDS011;459;48.676;9.034;2022-07-29T02:51:49;6.20;;;5.70;;
944;SDS011;459;48.676;9.034;2022-07-29T02:54:19;5.73;;;5.23;;
944;SDS011;459;48.676;9.034;2022-07-29T02:56:45;5.83;;;5.40;;
944;SDS011;459;48.676;9.034;2022-07-29T02:59:11;5.73;;;5.30;;
944;SDS011;459;48.676;9.034;2022-07-29T03:01:39;5.93;;;5.43;;
944;SDS011;459;48.676;9.034;2022-07-29T03:04:04;6.73;;;6.23;;
944;SDS011;459;48.676;9.034;2022-07-29T03:06:30;7.10;;;6.50;;
944;SDS011;459;48.676;9.034;2022-07-29T03:08:57;6.87;;;6.30;;
944;SDS011;459;48.676;9.034;2022-07-29T03:11:24;7.30;;;6.77;;
944;SDS011;459;48.676;9.034;2022-07-29T03:13:49;6.80;;;6.30;;
944;SDS011;459;48.676;9.034;2022-07-29T03:16:15;7.60;;;6.83;;
944;SDS011;459;48.676;9.034;2022-07-29T03:18:40;8.40;;;7.70;;
944;SDS011;459;48.676;9.034;2022-07-29T03:21:06;9.50;;;8.70;;
944;SDS011;459;48.676;9.034;2022-07-29T03:23:31;8.60;;;7.50;;
944;SDS011;459;48.676;9.034;2022-07-29T03:25:56;8.20;;;7.50;;
944;SDS011;459;48.676;9.034;2022-07-29T03:28:22;8.40;;;7.70;;
944;SDS011;459;48.676;9.034;2022-07-29T03:30:47;7.20;;;6.60;;
944;SDS011;459;48.676;9.034;2022-07-29T03:33:13;7.80;;;6.80;;
944;SDS011;459;48.676;9.034;2022-07-29T03:35:38;6.30;;;5.80;;
944;SDS011;459;48.676;9.034;2022-07-29T03:38:03;6.73;;;6.23;;
944;SDS011;459;48.676;9.034;2022-07-29T03:40:48;6.63;;;6.10;;
944;SDS011;459;48.676;9.034;2022-07-29T03:43:15;6.40;;;5.90;;
944;SDS011;459;48.676;9.034;2022-07-29T03:45:42;6.70;;;5.93;;
944;SDS011;459;48.676;9.034;2022-07-29T03:48:08;7.03;;;6.53;;
944;SDS011;459;48.676;9.034;2022-07-29T03:50:34;6.23;;;5.73;;
944;SDS011;459;48.676;9.034;2022-07-29T03:53:00;5.70;;;4.63;;
944;SDS011;459;48.676;9.034;2022-07-29T03:55:26;5.23;;;4.73;;
944;SDS011;459;48.676;9.034;2022-07-29T03:57:53;5.47;;;5.00;;
944;SDS011;459;48.676;9.034;2022-07-29T04:00:18;5.73;;;5.17;;
944;SDS011;459;48.676;9.034;2022-07-29T04:02:44;5.10;;;4.60;;
944;SDS011;459;48.676;9.034;2022-07-29T04:05:13;5.50;;;5.10;;
944;SDS011;459;48.676;9.034;2022-07-29T04:07:39;4.63;;;4.33;;
944;SDS011;459;48.676;9.034;2022-07-29T04:10:04;5.10;;;4.60;;
944;SDS011;459;48.676;9.034;2022-07-29T04:12:30;5.00;;;4.60;;
944;SDS011;459;48.676;9.034;2022-07-29T04:14:55;5.13;;;4.83;;
944;SDS011;459;48.676;9.034;2022-07-29T04:17:20;4.97;;;4.67;;
944;SDS011;459;48.676;9.034;2022-07-29T04:19:45;6.73;;;6.10;;
944;SDS011;459;48.676;9.034;2022-07-29T04:22:10;5.03;;;4.67;;
944;SDS011;459;48.676;9.034;2022-07-29T04:24:36;4.10;;;3.80;;
944;SDS011;459;48.676;9.034;2022-07-29T04:27:01;4.70;;;4.33;;
944;SDS011;459;48.676;9.034;2022-07-29T04:29:26;4.93;;;4.53;;
944;SDS011;459;48.676;9.034;2022-07-29T04:31:51;4.40;;;4.07;;
944;SDS011;459;48.676;9.034;2022-07-29T04:34:16;6.03;;;5.53;;
944;SDS011;459;48.676;9.034;2022-07-29T04:36:42;4.77;;;4.37;;
944;SDS011;459;48.676;9.034;2022-07-29T04:39:07;4.73;;;4.43;;
944;SDS011;459;48.676;9.034;2022-07-29T04:41:32;9.50;;;6.50;;
944;SDS011;459;48.676;9.034;2022-07-29T04:43:57;5.23;;;4.73;;
944;SDS011;459;48.676;9.034;2022-07-29T04:46:22;4.90;;;4.50;;
944;SDS011;459;48.676;9.034;2022-07-29T04:48:48;4.87;;;4.30;;
944;SDS011;459;48.676;9.034;2022-07-29T04:51:13;5.43;;;4.90;;
944;SDS011;459;48.676;9.034;2022-07-29T04:53:39;5.10;;;4.60;;
944;SDS011;459;48.676;9.034;2022-07-29T04:56:04;5.03;;;4.63;;
944;SDS011;459;48.676;9.034;2022-07-29T04:58:29;5.13;;;4.73;;
944;SDS011;459;48.676;9.034;2022-07-29T05:00:54;4.93;;;4.40;;
944;SDS011;459;48.676;9.034;2022-07-29T05:03:20;5.33;;;4.90;;
944;SDS011;459;48.676;9.034;2022-07-29T05:05:45;5.10;;;4.70;;
944;SDS011;459;48.676;9.034;2022-07-29T05:08:11;4.40;;;4.03;;
944;SDS011;459;48.676;9.034;2022-07-29T05:10:36;4.87;;;4.47;;
944;SDS011;459;48.676;9.034;2022-07-29T05:13:03;5.03;;;4.40;;
944;SDS011;459;48.676;9.034;2022-07-29T05:15:29;4.90;;;4.50;;
944;SDS011;459;48.676;9.034;2022-07-29T05:17:54;5.67;;;4.37;;
944;SDS011;459;48.676;9.034;2022-07-29T05:20:19;5.13;;;4.73;;
944;SDS011;459;48.676;9.034;2022-07-29T05:22:50;4.47;;;4.07;;
944;SDS011;459;48.676;9.034;2022-07-29T05:25:16;4.23;;;3.77;;
944;SDS011;459;48.676;9.034;2022-07-29T05:27:41;5.40;;;5.00;;
944;SDS011;459;48.676;9.034;2022-07-29T05:30:06;5.20;;;4.70;;
944;SDS011;459;48.676;9.034;2022-07-29T05:32:31;6.67;;;5.30;;
944;SDS011;459;48.676;9.034;2022-07-29T05:34:57;5.20;;;4.63;;
944;SDS011;459;48.676;9.034;2022-07-29T05:37:22;5.50;;;5.07;;
944;SDS011;459;48.676;9.034;2022-07-29T05:39:47;4.50;;;4.20;;
944;SDS011;459;48.676;9.034;2022-07-29T05:42:12;5.93;;;4.67;;
944;SDS011;459;48.676;9.034;2022-07-29T05:44:38;6.03;;;5.47;;
944;SDS011;459;48.676;9.034;2022-07-29T05:47:03;7.90;;;5.63;;
944;SDS011;459;48.676;9.034;2022-07-29T05:49:28;5.43;;;5.10;;
944;SDS011;459;48.676;9.034;2022-07-29T05:51:53;6.80;;;6.13;;
944;SDS011;459;48.676;9.034;2022-07-29T05:54:18;5.30;;;4.80;;
944;SDS011;459;48.676;9.034;2022-07-29T05:56:44;6.13;;;5.63;;
944;SDS011;459;48.676;9.034;2022-07-29T05:59:09;5.43;;;5.03;;
944;SDS011;459;48.676;9.034;2022-07-29T06:01:34;5.67;;;5.30;;
944;SDS011;459;48.676;9.034;2022-07-29T06:04:04;5.67;;;5.10;;
944;SDS011;459;48.676;9.034;2022-07-29T06:06:29;6.20;;;5.70;;
944;SDS011;459;48.676;9.034;2022-07-29T06:08:54;7.53;;;6.47;;
944;SDS011;459;48.676;9.034;2022-07-29T06:11:19;7.60;;;6.20;;
944;SDS011;459;48.676;9.034;2022-07-29T06:13:44;6.90;;;6.20;;
944;SDS011;459;48.676;9.034;2022-07-29T06:16:09;8.23;;;7.43;;
944;SDS011;459;48.676;9.034;2022-07-29T06:18:35;6.63;;;5.93;;
944;SDS011;459;48.676;9.034;2022-07-29T06:21:00;5.20;;;4.90;;
944;SDS011;459;48.676;9.034;2022-07-29T06:23:25;5.87;;;5.47;;
944;SDS011;459;48.676;9.034;2022-07-29T06:25:50;6.23;;;5.73;;
944;SDS011;459;48.676;9.034;2022-07-29T06:28:15;6.67;;;6.23;;
944;SDS011;459;48.676;9.034;2022-07-29T06:30:41;8.80;;;6.60;;
944;SDS011;459;48.676;9.034;2022-07-29T06:33:06;6.90;;;5.90;;
944;SDS011;459;48.676;9.034;2022-07-29T06:35:34;6.13;;;5.63;;
944;SDS011;459;48.676;9.034;2022-07-29T06:38:04;7.17;;;6.53;;
944;SDS011;459;48.676;9.034;2022-07-29T06:40:29;7.20;;;6.50;;
944;SDS011;459;48.676;9.034;2022-07-29T06:43:27;5.93;;;5.53;;
944;SDS011;459;48.676;9.034;2022-07-29T06:45:52;7.20;;;6.50;;
944;SDS011;459;48.676;9.034;2022-07-29T06:48:17;6.80;;;6.13;;
944;SDS011;459;48.676;9.034;2022-07-29T06:50:42;6.93;;;6.33;;
944;SDS011;459;48.676;9.034;2022-07-29T06:53:08;7.20;;;6.60;;
944;SDS011;459;48.676;9.034;2022-07-29T06:55:33;7.90;;;7.20;;
944;SDS011;459;48.676;9.034;2022-07-29T06:57:58;6.80;;;6.20;;
944;SDS011;459;48.676;9.034;2022-07-29T07:00:23;6.53;;;6.03;;
944;SDS011;459;48.676;9.034;2022-07-29T07:02:49;6.87;;;6.33;;
944;SDS011;459;48.676;9.034;2022-07-29T07:05:14;7.67;;;7.07;;
944;SDS011;459;48.676;9.034;2022-07-29T07:07:39;7.33;;;6.80;;
944;SDS011;459;48.676;9.034;2022-07-29T07:10:04;7.57;;;7.07;;
944;SDS011;459;48.676;9.034;2022-07-29T07:12:30;6.60;;;6.20;;
944;SDS011;459;48.676;9.034;2022-07-29T07:14:55;7.30;;;6.80;;
944;SDS011;459;48.676;9.034;2022-07-29T07:17:20;8.07;;;7.37;;
944;SDS011;459;48.676;9.034;2022-07-29T07:19:45;7.20;;;6.60;;
944;SDS011;459;48.676;9.034;2022-07-29T07:22:10;7.37;;;6.87;;
944;SDS011;459;48.676;9.034;2022-07-29T07:24:35;7.20;;;6.70;;
944;SDS011;459;48.676;9.034;2022-07-29T07:27:01;7.83;;;7.23;;
944;SDS011;459;48.676;9.034;2022-07-29T07:29:26;7.80;;;7.20;;
944;SDS011;459;48.676;9.034;2022-07-29T07:31:52;8.37;;;7.77;;
944;SDS011;459;48.676;9.034;2022-07-29T07:34:17;7.87;;;7.17;;
944;SDS011;459;48.676;9.034;2022-07-29T07:36:42;8.03;;;7.40;;
944;SDS011;459;48.676;9.034;2022-07-29T07:39:07;8.37;;;7.77;;
944;SDS011;459;48.676;9.034;2022-07-29T07:41:33;7.37;;;6.87;;
944;SDS011;459;48.676;9.034;2022-07-29T07:43:58;7.63;;;7.13;;
944;SDS011;459;48.676;9.034;2022-07-29T07:46:23;7.73;;;7.03;;
944;SDS011;459;48.676;9.034;2022-07-29T07:48:49;8.10;;;7.40;;
944;SDS011;459;48.676;9.034;2022-07-29T07:51:14;8.17;;;7.53;;
944;SDS011;459;48.676;9.034;2022-07-29T07:53:39;8.17;;;7.57;;
944;SDS011;459;48.676;9.034;2022-07-29T07:56:04;8.10;;;7.40;;
944;SDS011;459;48.676;9.034;2022-07-29T07:58:31;8.37;;;7.60;;
944;SDS011;459;48.676;9.034;2022-07-29T08:00:56;8.40;;;7.57;;
944;SDS011;459;48.676;9.034;2022-07-29T08:03:21;7.90;;;7.27;;
944;SDS011;459;48.676;9.034;2022-07-29T08:05:46;8.57;;;7.77;;
944;SDS011;459;48.676;9.034;2022-07-29T08:08:13;7.77;;;7.20;;
944;SDS011;459;48.676;9.034;2022-07-29T08:10:38;8.07;;;7.37;;
944;SDS011;459;48.676;9.034;2022-07-29T08:13:19;8.13;;;7.47;;
944;SDS011;459;48.676;9.034;2022-07-29T08:15:45;9.00;;;7.80;;
944;SDS011;459;48.676;9.034;2022-07-29T08:18:11;7.50;;;6.80;;
944;SDS011;459;48.676;9.034;2022-07-29T08:20:36;6.93;;;6.43;;
944;SDS011;459;48.676;9.034;2022-07-29T08:23:03;7.80;;;7.13;;
944;SDS011;459;48.676;9.034;2022-07-29T08:25:29;7.23;;;6.60;;
944;SDS011;459;48.676;9.034;2022-07-29T08:27:54;7.40;;;6.80;;
944;SDS011;459;48.676;9.034;2022-07-29T08:30:19;7.57;;;6.90;;
944;SDS011;459;48.676;9.034;2022-07-29T08:32:44;7.40;;;6.70;;
944;SDS011;459;48.676;9.034;2022-07-29T08:35:10;7.20;;;6.60;;
944;SDS011;459;48.676;9.034;2022-07-29T08:37:35;8.27;;;7.57;;
944;SDS011;459;48.676;9.034;2022-07-29T08:40:00;8.33;;;7.73;;
944;SDS011;459;48.676;9.034;2022-07-29T08:42:25;7.73;;;7.03;;
944;SDS011;459;48.676;9.034;2022-07-29T08:44:50;7.87;;;7.20;;
944;SDS011;459;48.676;9.034;2022-07-29T08:47:16;8.23;;;7.63;;
944;SDS011;459;48.676;9.034;2022-07-29T08:49:41;7.57;;;6.87;;
944;SDS011;459;48.676;9.034;2022-07-29T08:52:06;8.20;;;7.40;;
944;SDS011;459;48.676;9.034;2022-07-29T08:54:32;9.00;;;8.00;;
944;SDS011;459;48.676;9.034;2022-07-29T08:56:57;8.23;;;7.43;;
944;SDS011;459;48.676;9.034;2022-07-29T08:59:24;7.43;;;6.83;;
944;SDS011;459;48.676;9.034;2022-07-29T09:01:50;8.50;;;7.90;;
944;SDS011;459;48.676;9.034;2022-07-29T09:04:17;8.87;;;7.93;;
944;SDS011;459;48.676;9.034;2022-07-29T09:06:44;7.53;;;6.93;;
944;SDS011;459;48.676;9.034;2022-07-29T09:09:10;7.57;;;6.97;;
944;SDS011;459;48.676;9.034;2022-07-29T09:11:35;8.87;;;7.97;;
944;SDS011;459;48.676;9.034;2022-07-29T09:14:01;7.77;;;7.20;;
944;SDS011;459;48.676;9.034;2022-07-29T09:16:26;7.93;;;7.33;;
944;SDS011;459;48.676;9.034;2022-07-29T09:19:21;7.87;;;7.13;;
944;SDS011;459;48.676;9.034;2022-07-29T09:21:46;7.73;;;7.13;;
944;SDS011;459;48.676;9.034;2022-07-29T09:24:24;7.80;;;7.00;;
944;SDS011;459;48.676;9.034;2022-07-29T09:26:50;7.20;;;6.60;;
944;SDS011;459;48.676;9.034;2022-07-29T09:29:18;7.75;;;7.15;;
944;SDS011;459;48.676;9.034;2022-07-29T09:31:47;8.30;;;7.37;;
944;SDS011;459;48.676;9.034;2022-07-29T09:34:14;7.63;;;6.83;;
944;SDS011;459;48.676;9.034;2022-07-29T09:39:05;7.47;;;6.90;;
944;SDS011;459;48.676;9.034;2022-07-29T09:41:30;6.97;;;6.37;;
944;SDS011;459;48.676;9.034;2022-07-29T09:44:08;7.10;;;6.60;;
944;SDS011;459;48.676;9.034;2022-07-29T09:46:33;7.63;;;6.90;;
944;SDS011;459;48.676;9.034;2022-07-29T09:49:09;8.00;;;7.40;;
944;SDS011;459;48.676;9.034;2022-07-29T09:51:35;7.30;;;6.80;;
944;SDS011;459;48.676;9.034;2022-07-29T09:54:00;7.67;;;7.07;;
944;SDS011;459;48.676;9.034;2022-07-29T09:56:41;7.17;;;6.57;;
944;SDS011;459;48.676;9.034;2022-07-29T09:59:06;7.10;;;6.53;;
944;SDS011;459;48.676;9.034;2022-07-29T10:01:32;7.60;;;7.00;;
944;SDS011;459;48.676;9.034;2022-07-29T10:03:57;6.40;;;6.00;;
944;SDS011;459;48.676;9.034;2022-07-29T10:06:22;7.87;;;7.27;;
944;SDS011;459;48.676;9.034;2022-07-29T10:08:47;7.43;;;6.83;;
944;SDS011;459;48.676;9.034;2022-07-29T10:11:15;7.63;;;6.87;;
944;SDS011;459;48.676;9.034;2022-07-29T10:13:41;7.43;;;6.83;;
944;SDS011;459;48.676;9.034;2022-07-29T10:16:07;8.23;;;7.67;;
944;SDS011;459;48.676;9.034;2022-07-29T10:18:32;7.83;;;7.03;;
944;SDS011;459;48.676;9.034;2022-07-29T10:20:57;6.87;;;6.27;;
944;SDS011;459;48.676;9.034;2022-07-29T10:23:23;6.30;;;5.77;;
944;SDS011;459;48.676;9.034;2022-07-29T10:25:48;6.70;;;6.17;;
944;SDS011;459;48.676;9.034;2022-07-29T10:28:14;7.60;;;6.90;;
944;SDS011;459;48.676;9.034;2022-07-29T10:30:39;7.47;;;6.87;;
944;SDS011;459;48.676;9.034;2022-07-29T10:40:46;7.33;;;6.13;;
944;SDS011;459;48.676;9.034;2022-07-29T10:43:32;7.10;;;6.47;;
944;SDS011;459;48.676;9.034;2022-07-29T10:46:01;9.10;;;6.43;;
944;SDS011;459;48.676;9.034;2022-07-29T10:48:27;7.57;;;6.97;;
944;SDS011;459;48.676;9.034;2022-07-29T10:50:59;7.80;;;7.10;;
944;SDS011;459;48.676;9.034;2022-07-29T10:53:45;10.03;;;8.17;;
944;SDS011;459;48.676;9.034;2022-07-29T10:56:23;9.90;;;9.00;;
944;SDS011;459;48.676;9.034;2022-07-29T11:01:33;10.60;;;9.20;;
944;SDS011;459;48.676;9.034;2022-07-29T11:03:58;12.33;;;11.10;;
944;SDS011;459;48.676;9.034;2022-07-29T11:06:23;12.57;;;10.37;;
944;SDS011;459;48.676;9.034;2022-07-29T11:09:14;11.53;;;10.50;;
944;SDS011;459;48.676;9.034;2022-07-29T11:11:35;11.27;;;9.87;;
944;SDS011;459;48.676;9.034;2022-07-29T11:14:01;11.63;;;10.43;;
944;SDS011;459;48.676;9.034;2022-07-29T11:16:31;10.07;;;9.23;;
944;SDS011;459;48.676;9.034;2022-07-29T11:21:41;10.20;;;9.30;;
944;SDS011;459;48.676;9.034;2022-07-29T11:24:13;11.43;;;10.30;;
944;SDS011;459;48.676;9.034;2022-07-29T11:26:39;16.43;;;14.10;;
944;SDS011;459;48.676;9.034;2022-07-29T11:34:15;13.50;;;11.97;;
944;SDS011;459;48.676;9.034;2022-07-29T11:37:12;11.00;;;9.97;;
944;SDS011;459;48.676;9.034;2022-07-29T11:39:26;10.73;;;9.83;;
944;SDS011;459;48.676;9.034;2022-07-29T11:41:51;10.67;;;9.87;;
944;SDS011;459;48.676;9.034;2022-07-29T11:44:17;11.30;;;10.30;;
944;SDS011;459;48.676;9.034;2022-07-29T11:49:07;12.48;;;11.32;;
944;SDS011;459;48.676;9.034;2022-07-29T11:51:34;10.70;;;9.90;;
944;SDS011;459;48.676;9.034;2022-07-29T11:53:59;9.17;;;8.40;;
944;SDS011;459;48.676;9.034;2022-07-29T11:56:24;8.70;;;7.80;;
944;SDS011;459;48.676;9.034;2022-07-29T11:59:00;9.13;;;8.43;;
944;SDS011;459;48.676;9.034;2022-07-29T12:01:25;8.70;;;7.93;;
944;SDS011;459;48.676;9.034;2022-07-29T12:04:01;8.07;;;7.37;;
944;SDS011;459;48.676;9.034;2022-07-29T12:06:26;9.70;;;9.00;;
944;SDS011;459;48.676;9.034;2022-07-29T12:08:51;8.87;;;8.27;;
944;SDS011;459;48.676;9.034;2022-07-29T12:11:17;9.37;;;8.67;;
944;SDS011;459;48.676;9.034;2022-07-29T12:13:43;8.97;;;8.27;;
944;SDS011;459;48.676;9.034;2022-07-29T12:16:08;9.27;;;7.53;;
944;SDS011;459;48.676;9.034;2022-07-29T12:18:33;10.27;;;9.07;;
944;SDS011;459;48.676;9.034;2022-07-29T12:20:59;8.33;;;7.63;;
944;SDS011;459;48.676;9.034;2022-07-29T12:23:24;9.40;;;8.53;;
944;SDS011;459;48.676;9.034;2022-07-29T12:25:50;8.50;;;7.80;;
944;SDS011;459;48.676;9.034;2022-07-29T12:28:15;8.73;;;7.90;;
944;SDS011;459;48.676;9.034;2022-07-29T12:30:48;8.17;;;7.50;;
944;SDS011;459;48.676;9.034;2022-07-29T12:33:23;7.33;;;6.73;;
944;SDS011;459;48.676;9.034;2022-07-29T12:35:50;7.80;;;7.20;;
944;SDS011;459;48.676;9.034;2022-07-29T12:38:15;8.40;;;7.20;;
944;SDS011;459;48.676;9.034;2022-07-29T12:40:41;8.13;;;7.53;;
944;SDS011;459;48.676;9.034;2022-07-29T12:43:10;8.07;;;7.47;;
944;SDS011;459;48.676;9.034;2022-07-29T12:45:40;8.70;;;7.90;;
944;SDS011;459;48.676;9.034;2022-07-29T12:48:06;8.30;;;7.53;;
944;SDS011;459;48.676;9.034;2022-07-29T12:50:33;9.47;;;8.63;;
944;SDS011;459;48.676;9.034;2022-07-29T12:53:11;9.90;;;8.90;;
944;SDS011;459;48.676;9.034;2022-07-29T12:55:41;10.67;;;9.67;;
944;SDS011;459;48.676;9.034;2022-07-29T12:58:06;11.30;;;9.57;;
944;SDS011;459;48.676;9.034;2022-07-29T13:00:32;10.90;;;9.93;;
944;SDS011;459;48.676;9.034;2022-07-29T13:02:57;11.63;;;10.50;;
944;SDS011;459;48.676;9.034;2022-07-29T13:05:22;13.27;;;11.87;;
944;SDS011;459;48.676;9.034;2022-07-29T13:07:49;14.53;;;13.20;;
944;SDS011;459;48.676;9.034;2022-07-29T13:10:18;15.00;;;13.40;;
944;SDS011;459;48.676;9.034;2022-07-29T13:15:27;21.60;;;17.50;;
944;SDS011;459;48.676;9.034;2022-07-29T13:17:52;18.00;;;16.37;;
944;SDS011;459;48.676;9.034;2022-07-29T13:20:18;19.67;;;17.90;;
944;SDS011;459;48.676;9.034;2022-07-29T13:22:46;19.47;;;17.77;;
944;SDS011;459;48.676;9.034;2022-07-29T13:25:12;18.20;;;16.63;;
944;SDS011;459;48.676;9.034;2022-07-29T13:27:37;20.23;;;18.53;;
944;SDS011;459;48.676;9.034;2022-07-29T13:30:07;23.63;;;21.53;;
944;SDS011;459;48.676;9.034;2022-07-29T13:32:32;21.37;;;19.27;;
944;SDS011;459;48.676;9.034;2022-07-29T13:34:59;18.53;;;17.17;;
944;SDS011;459;48.676;9.034;2022-07-29T13:37:25;16.53;;;15.20;;
944;SDS011;459;48.676;9.034;2022-07-29T13:39:51;16.80;;;15.40;;
944;SDS011;459;48.676;9.034;2022-07-29T13:42:17;15.37;;;14.30;;
944;SDS011;459;48.676;9.034;2022-07-29T13:44:42;16.10;;;14.60;;
944;SDS011;459;48.676;9.034;2022-07-29T13:47:08;14.37;;;13.07;;
944;SDS011;459;48.676;9.034;2022-07-29T13:49:33;16.47;;;15.07;;
944;SDS011;459;48.676;9.034;2022-07-29T13:51:59;12.90;;;11.80;;
944;SDS011;459;48.676;9.034;2022-07-29T13:54:24;14.53;;;13.33;;
944;SDS011;459;48.676;9.034;2022-07-29T13:56:49;12.67;;;11.67;;
944;SDS011;459;48.676;9.034;2022-07-29T13:59:15;13.27;;;12.27;;
944;SDS011;459;48.676;9.034;2022-07-29T14:01:40;12.63;;;11.40;;
944;SDS011;459;48.676;9.034;2022-07-29T14:04:09;12.40;;;11.50;;
944;SDS011;459;48.676;9.034;2022-07-29T14:06:34;12.57;;;11.53;;
944;SDS011;459;48.676;9.034;2022-07-29T14:08:59;12.63;;;11.57;;
944;SDS011;459;48.676;9.034;2022-07-29T14:11:25;12.20;;;11.40;;
944;SDS011;459;48.676;9.034;2022-07-29T14:13:50;12.43;;;11.50;;
944;SDS011;459;48.676;9.034;2022-07-29T14:16:15;12.37;;;11.37;;
944;SDS011;459;48.676;9.034;2022-07-29T14:18:40;12.70;;;11.57;;
944;SDS011;459;48.676;9.034;2022-07-29T14:21:05;10.97;;;10.23;;
944;SDS011;459;48.676;9.034;2022-07-29T14:23:31;13.70;;;12.60;;
944;SDS011;459;48.676;9.034;2022-07-29T14:25:56;14.43;;;13.43;;
944;SDS011;459;48.676;9.034;2022-07-29T14:28:21;13.23;;;12.30;;
944;SDS011;459;48.676;9.034;2022-07-29T14:30:46;11.53;;;10.57;;
944;SDS011;459;48.676;9.034;2022-07-29T14:33:11;12.03;;;11.17;;
944;SDS011;459;48.676;9.034;2022-07-29T14:35:37;10.17;;;9.37;;
944;SDS011;459;48.676;9.034;2022-07-29T14:38:02;13.50;;;12.40;;
944;SDS011;459;48.676;9.034;2022-07-29T14:40:27;12.87;;;11.97;;
944;SDS011;459;48.676;9.034;2022-07-29T14:42:53;11.80;;;10.73;;
944;SDS011;459;48.676;9.034;2022-07-29T14:45:18;12.87;;;11.70;;
944;SDS011;459;48.676;9.034;2022-07-29T14:47:43;12.67;;;11.57;;
944;SDS011;459;48.676;9.034;2022-07-29T14:50:08;12.20;;;11.20;;
944;SDS011;459;48.676;9.034;2022-07-29T14:52:34;11.20;;;10.30;;
944;SDS011;459;48.676;9.034;2022-07-29T14:54:59;12.40;;;11.40;;
944;SDS011;459;48.676;9.034;2022-07-29T14:57:24;12.70;;;11.70;;
944;SDS011;459;48.676;9.034;2022-07-29T14:59:50;11.17;;;10.30;;
944;SDS011;459;48.676;9.034;2022-07-29T15:02:15;11.30;;;10.30;;
944;SDS011;459;48.676;9.034;2022-07-29T15:04:40;10.07;;;9.20;;
944;SDS011;459;48.676;9.034;2022-07-29T15:07:05;10.70;;;9.90;;
944;SDS011;459;48.676;9.034;2022-07-29T15:09:31;9.43;;;8.63;;
944;SDS011;459;48.676;9.034;2022-07-29T15:11:56;10.30;;;9.70;;
944;SDS011;459;48.676;9.034;2022-07-29T15:14:21;11.23;;;10.13;;
944;SDS011;459;48.676;9.034;2022-07-29T15:16:46;10.80;;;10.00;;
944;SDS011;459;48.676;9.034;2022-07-29T15:19:11;9.10;;;8.30;;
944;SDS011;459;48.676;9.034;2022-07-29T15:21:37;11.23;;;10.33;;
944;SDS011;459;48.676;9.034;2022-07-29T15:24:02;11.33;;;10.33;;
944;SDS011;459;48.676;9.034;2022-07-29T15:26:27;11.50;;;10.60;;
944;SDS011;459;48.676;9.034;2022-07-29T15:28:52;11.30;;;10.40;;
944;SDS011;459;48.676;9.034;2022-07-29T15:31:18;12.40;;;11.50;;
944;SDS011;459;48.676;9.034;2022-07-29T15:33:44;11.60;;;10.80;;
944;SDS011;459;48.676;9.034;2022-07-29T15:36:09;12.37;;;11.57;;
944;SDS011;459;48.676;9.034;2022-07-29T15:38:36;11.10;;;10.40;;
944;SDS011;459;48.676;9.034;2022-07-29T15:41:02;12.03;;;11.17;;
944;SDS011;459;48.676;9.034;2022-07-29T15:43:27;10.60;;;9.90;;
944;SDS011;459;48.676;9.034;2022-07-29T15:45:52;11.57;;;10.80;;
944;SDS011;459;48.676;9.034;2022-07-29T15:48:37;10.97;;;10.20;;
944;SDS011;459;48.676;9.034;2022-07-29T15:51:03;10.80;;;9.90;;
944;SDS011;459;48.676;9.034;2022-07-29T15:53:28;10.50;;;9.80;;
944;SDS011;459;48.676;9.034;2022-07-29T15:55:53;10.90;;;9.90;;
944;SDS011;459;48.676;9.034;2022-07-29T15:58:18;10.47;;;9.47;;
944;SDS011;459;48.676;9.034;2022-07-29T16:00:44;10.23;;;9.60;;
944;SDS011;459;48.676;9.034;2022-07-29T16:03:09;10.83;;;10.13;;
944;SDS011;459;48.676;9.034;2022-07-29T16:05:34;10.97;;;10.17;;
944;SDS011;459;48.676;9.034;2022-07-29T16:08:02;9.80;;;9.20;;
944;SDS011;459;48.676;9.034;2022-07-29T16:10:27;11.53;;;10.43;;
944;SDS011;459;48.676;9.034;2022-07-29T16:12:52;10.53;;;9.60;;
944;SDS011;459;48.676;9.034;2022-07-29T16:15:18;9.93;;;9.23;;